EGLT weather

Ascot Racecourse Heliport
Ascot Heath, England, United Kingdom

Public forecast

Using degrees Celsius for public forecast. Weather courtesy of forecast.io.

METAR (pilot weather report)

Closest report is London Heathrow Airport, 7.8 nm (14.5 km) ENE. Retrieved 2018/09/24 08:50 UTC (22 minutes ago):

EGLL 240850Z AUTO 33004KT 290V020 9999 NCD 10/06 Q1038 NOSIG

TAF (pilot weather forecast)

Closest forecast is London Heathrow Airport, 7.8 nm (14.5 km) ENE. Retrieved 2018/09/24 06:43 UTC (2 hours ago):

TAF EGLL 240452Z 2406/2512 33008KT 9999 FEW040 PROB30 2406/2407 7000